createdAt,value
2023-02-01T00:00:24.936Z,97389.34
2023-02-01T00:02:51.468Z,97415.81
2023-02-01T00:05:18.081Z,97405.75
2023-02-01T00:07:46.029Z,97382.88
2023-02-01T00:10:12.782Z,97365.50
2023-02-01T00:12:39.469Z,97396.63
2023-02-01T00:15:06.697Z,97373.13
2023-02-01T00:17:33.220Z,97380.09
2023-02-01T00:19:59.832Z,97387.84
2023-02-01T00:22:26.438Z,97382.06
2023-02-01T00:24:53.062Z,97377.41
2023-02-01T00:27:19.692Z,97372.09
2023-02-01T00:29:46.376Z,97387.94
2023-02-01T00:32:13.084Z,97373.84
2023-02-01T00:34:39.745Z,97365.25
2023-02-01T00:37:06.364Z,97386.88
2023-02-01T00:39:33.102Z,97405.75
2023-02-01T00:42:01.222Z,97342.00
2023-02-01T00:44:27.759Z,97376.13
2023-02-01T00:46:54.385Z,97350.00
2023-02-01T00:49:21.007Z,97371.97
2023-02-01T00:51:47.579Z,97364.59
2023-02-01T00:54:14.229Z,97392.34
2023-02-01T00:56:40.887Z,97384.47
2023-02-01T00:59:08.579Z,97382.41
2023-02-01T01:01:35.243Z,97364.56
2023-02-01T01:04:01.886Z,97383.22
2023-02-01T01:06:32.466Z,97357.66
2023-02-01T01:09:00.149Z,97351.28
2023-02-01T01:11:30.790Z,97326.25
2023-02-01T01:13:58.213Z,97339.56
2023-02-01T01:16:25.624Z,97341.44
2023-02-01T01:18:52.321Z,97368.38
2023-02-01T01:21:19.056Z,97362.38
2023-02-01T01:23:46.204Z,97351.97
2023-02-01T01:26:17.763Z,97353.22
2023-02-01T01:28:44.363Z,97368.97
2023-02-01T01:31:15.239Z,97341.78
2023-02-01T01:33:41.976Z,97363.53
2023-02-01T01:36:09.253Z,97344.66
2023-02-01T01:38:36.169Z,97374.19
2023-02-01T01:41:02.859Z,97366.78
2023-02-01T01:43:49.117Z,97350.34
2023-02-01T01:46:19.998Z,97362.38
2023-02-01T01:48:47.306Z,97343.97
2023-02-01T01:51:14.064Z,97358.78
2023-02-01T01:53:46.147Z,97321.16
2023-02-01T01:56:13.046Z,97361.91
2023-02-01T01:58:39.684Z,97336.34
2023-02-01T02:01:06.537Z,97342.47
2023-02-01T02:03:45.911Z,97350.59
2023-02-01T02:06:43.363Z,97348.94
2023-02-01T02:09:10.045Z,97321.41
2023-02-01T02:11:36.703Z,97330.91
2023-02-01T02:14:03.410Z,97344.06
2023-02-01T02:16:45.178Z,97346.06
2023-02-01T02:19:20.824Z,97355.06
2023-02-01T02:22:11.913Z,97333.56
2023-02-01T02:25:03.259Z,97342.94
2023-02-01T02:27:57.757Z,97332.63
2023-02-01T02:30:55.201Z,97349.06
2023-02-01T02:33:59.253Z,97313.19
2023-02-01T02:36:44.571Z,97325.31
2023-02-01T02:39:41.198Z,97330.56
2023-02-01T02:42:35.831Z,97332.63
2023-02-01T02:45:21.082Z,97296.75
2023-02-01T02:47:58.639Z,97281.38
2023-02-01T02:51:08.600Z,97313.31
2023-02-01T02:53:38.951Z,97305.16
2023-02-01T02:56:06.489Z,97292.47
2023-02-01T02:58:33.124Z,97305.41
2023-02-01T03:00:59.767Z,97299.03
2023-02-01T03:03:26.377Z,97289.09
2023-02-01T03:05:53.134Z,97282.38
2023-02-01T03:08:20.396Z,97275.00
2023-02-01T03:11:05.739Z,97289.09
2023-02-01T03:13:41.406Z,97285.63
2023-02-01T03:16:08.714Z,97281.69
2023-02-01T03:18:49.667Z,97269.19
2023-02-01T03:21:27.434Z,97278.00
2023-02-01T03:23:55.000Z,97280.66
2023-02-01T03:26:22.739Z,97284.72
2023-02-01T03:28:53.384Z,97270.81
2023-02-01T03:31:20.134Z,97287.84
2023-02-01T03:33:46.767Z,97258.41
2023-02-01T03:36:21.887Z,97272.66
2023-02-01T03:39:16.659Z,97275.66
2023-02-01T03:41:54.204Z,97286.31
2023-02-01T03:44:24.748Z,97274.16
2023-02-01T03:47:01.205Z,97265.16
2023-02-01T03:49:36.042Z,97292.09
2023-02-01T03:52:02.710Z,97268.06
2023-02-01T03:54:29.301Z,97251.84
2023-02-01T03:56:57.765Z,97257.50
2023-02-01T03:59:24.398Z,97284.13
2023-02-01T04:01:51.223Z,97266.53
2023-02-01T04:04:17.906Z,97261.22
2023-02-01T04:06:44.457Z,97260.50
2023-02-01T04:09:10.968Z,97233.56
2023-02-01T04:11:37.599Z,97258.69
2023-02-01T04:14:04.162Z,97234.84
2023-02-01T04:16:32.065Z,97258.09
2023-02-01T04:18:59.065Z,97245.03
2023-02-01T04:21:29.048Z,97265.50
2023-02-01T04:23:55.727Z,97267.22
2023-02-01T04:26:22.496Z,97261.56
2023-02-01T04:28:49.281Z,97265.72
2023-02-01T04:31:16.752Z,97272.91
2023-02-01T04:33:43.416Z,97256.72
2023-02-01T04:36:10.121Z,97275.38
2023-02-01T04:38:36.724Z,97251.63
2023-02-01T04:41:03.339Z,97261.13
2023-02-01T04:43:29.996Z,97274.88
2023-02-01T04:45:56.876Z,97269.78
2023-02-01T04:48:25.058Z,97261.09
2023-02-01T04:50:51.890Z,97234.38
2023-02-01T04:53:18.676Z,97241.09
2023-02-01T04:55:45.368Z,97238.91
2023-02-01T04:58:12.072Z,97206.03
2023-02-01T05:00:38.814Z,97239.03
2023-02-01T05:03:05.528Z,97249.22
2023-02-01T05:05:32.102Z,97218.41
2023-02-01T05:07:58.759Z,97184.75
2023-02-01T05:10:25.516Z,97210.81
2023-02-01T05:12:52.347Z,97208.34
2023-02-01T05:15:18.987Z,97222.34
2023-02-01T05:17:45.707Z,97244.22
2023-02-01T05:20:12.363Z,97231.59
2023-02-01T05:22:39.019Z,97230.56
2023-02-01T05:25:08.215Z,97213.56
2023-02-01T05:27:35.100Z,97212.84
2023-02-01T05:30:02.391Z,97204.50
2023-02-01T05:32:29.070Z,97203.38
2023-02-01T05:34:55.733Z,97201.53
2023-02-01T05:37:22.521Z,97181.16
2023-02-01T05:39:49.118Z,97214.03
2023-02-01T05:42:15.923Z,97189.25
2023-02-01T05:44:42.555Z,97194.34
2023-02-01T05:47:09.208Z,97201.75
2023-02-01T05:49:35.800Z,97205.94
2023-02-01T05:52:02.565Z,97193.53
2023-02-01T05:54:29.221Z,97188.22
2023-02-01T05:56:55.911Z,97171.09
2023-02-01T05:59:22.578Z,97162.06
2023-02-01T06:01:49.329Z,97206.41
2023-02-01T06:04:15.931Z,97183.72
2023-02-01T06:06:42.499Z,97168.09
2023-02-01T06:09:09.156Z,97177.34
2023-02-01T06:11:35.818Z,97184.75
2023-02-01T06:14:02.494Z,97165.56
2023-02-01T06:16:29.220Z,97153.84
2023-02-01T06:18:56.007Z,97151.41
2023-02-01T06:21:22.660Z,97159.66
2023-02-01T06:23:49.253Z,97171.34
2023-02-01T06:26:16.017Z,97159.66
2023-02-01T06:28:42.625Z,97169.25
2023-02-01T06:31:09.434Z,97161.25
2023-02-01T06:33:36.442Z,97191.78
2023-02-01T06:36:05.211Z,97164.78
2023-02-01T06:38:31.809Z,97177.16
2023-02-01T06:40:58.683Z,97160.25
2023-02-01T06:43:25.795Z,97173.34
2023-02-01T06:45:52.682Z,97185.41
2023-02-01T06:48:19.407Z,97158.06
2023-02-01T06:50:46.029Z,97166.13
2023-02-01T06:53:12.646Z,97171.22
2023-02-01T06:55:39.350Z,97163.13
2023-02-01T06:58:06.195Z,97176.88
2023-02-01T07:00:32.858Z,97175.81
2023-02-01T07:02:59.405Z,97183.34
2023-02-01T07:05:25.991Z,97163.56
2023-02-01T07:07:52.578Z,97187.00
2023-02-01T07:10:19.552Z,97161.16
2023-02-01T07:12:46.141Z,97178.41
2023-02-01T07:15:12.864Z,97165.75
2023-02-01T07:17:39.424Z,97204.69
2023-02-01T07:20:06.834Z,97186.25
2023-02-01T07:22:33.545Z,97186.19
2023-02-01T07:25:00.211Z,97195.06
2023-02-01T07:27:26.823Z,97192.66
2023-02-01T07:29:53.490Z,97179.88
2023-02-01T07:32:21.067Z,97191.03
2023-02-01T07:34:47.710Z,97186.53
2023-02-01T07:37:14.560Z,97185.06
2023-02-01T07:39:41.229Z,97194.53
2023-02-01T07:42:07.885Z,97150.81
2023-02-01T07:44:34.618Z,97166.41
2023-02-01T07:47:01.317Z,97185.41
2023-02-01T07:49:27.940Z,97194.78
2023-02-01T07:51:54.643Z,97191.00
2023-02-01T07:54:21.313Z,97201.66
2023-02-01T07:56:47.986Z,97180.91
2023-02-01T07:59:14.552Z,97195.59
2023-02-01T08:01:41.176Z,97184.94
2023-02-01T08:04:10.076Z,97172.06
2023-02-01T08:06:36.638Z,97169.63
2023-02-01T08:09:03.786Z,97196.19
2023-02-01T08:11:30.702Z,97191.34
2023-02-01T08:13:57.973Z,97221.50
2023-02-01T08:16:24.879Z,97220.63
2023-02-01T08:18:52.068Z,97218.38
2023-02-01T08:21:20.688Z,97215.03
2023-02-01T08:23:47.465Z,97229.41
2023-02-01T08:26:19.678Z,97224.81
2023-02-01T08:28:49.554Z,97229.66
2023-02-01T08:31:17.369Z,97224.69
2023-02-01T08:33:44.453Z,97246.59
2023-02-01T08:36:11.579Z,97239.91
2023-02-01T08:38:38.989Z,97242.00
2023-02-01T08:41:09.863Z,97238.78
2023-02-01T08:43:36.959Z,97232.28
2023-02-01T08:46:04.706Z,97245.25
2023-02-01T08:48:31.623Z,97258.78
2023-02-01T08:50:58.329Z,97275.25
2023-02-01T08:53:24.893Z,97245.06
2023-02-01T08:55:51.483Z,97241.38
2023-02-01T08:58:18.246Z,97209.81
2023-02-01T09:00:45.297Z,97250.06
2023-02-01T09:03:12.307Z,97232.38
2023-02-01T09:05:49.153Z,97220.44
2023-02-01T09:08:16.969Z,97224.16
2023-02-01T09:10:43.742Z,97244.63
2023-02-01T09:13:10.853Z,97261.50
2023-02-01T09:15:38.397Z,97268.91
2023-02-01T09:18:05.152Z,97228.78
2023-02-01T09:20:31.817Z,97251.34
2023-02-01T09:22:58.607Z,97217.59
2023-02-01T09:25:25.919Z,97207.75
2023-02-01T09:27:52.725Z,97242.66
2023-02-01T09:30:19.452Z,97214.09
2023-02-01T09:32:46.113Z,97204.50
2023-02-01T09:35:12.821Z,97239.72
2023-02-01T09:37:39.517Z,97223.69
2023-02-01T09:40:06.649Z,97247.28
2023-02-01T09:43:11.933Z,97255.88
2023-02-01T09:45:51.695Z,97231.34
2023-02-01T09:48:21.624Z,97253.59
2023-02-01T09:50:56.366Z,97246.78
2023-02-01T09:53:30.377Z,97245.91
2023-02-01T09:56:19.591Z,97267.75
2023-02-01T09:58:53.115Z,97238.91
2023-02-01T10:01:21.558Z,97231.31
2023-02-01T10:03:48.338Z,97241.75
2023-02-01T10:06:31.645Z,97252.94
2023-02-01T10:09:28.649Z,97252.72
2023-02-01T10:12:05.780Z,97255.78
2023-02-01T10:15:06.841Z,97252.06
2023-02-01T10:17:33.351Z,97236.78
2023-02-01T10:20:16.631Z,97242.84
2023-02-01T10:23:16.068Z,97254.91
2023-02-01T10:25:54.588Z,97244.16
2023-02-01T10:28:21.503Z,97237.38
2023-02-01T10:30:48.833Z,97233.91
2023-02-01T10:33:23.106Z,97218.41
2023-02-01T10:35:55.047Z,97247.63
2023-02-01T10:38:27.344Z,97234.22
2023-02-01T10:40:54.469Z,97245.38
2023-02-01T10:43:21.140Z,97248.22
2023-02-01T10:45:47.813Z,97239.56
2023-02-01T10:48:14.579Z,97243.38
2023-02-01T10:50:55.963Z,97262.50
2023-02-01T10:53:29.731Z,97255.97
2023-02-01T10:55:57.054Z,97229.94
2023-02-01T10:58:28.824Z,97250.78
2023-02-01T11:01:06.123Z,97246.03
2023-02-01T11:03:38.676Z,97232.94
2023-02-01T11:06:16.106Z,97242.69
2023-02-01T11:09:02.363Z,97271.88
2023-02-01T11:11:29.084Z,97268.72
2023-02-01T11:14:00.285Z,97236.22
2023-02-01T11:16:38.650Z,97255.72
2023-02-01T11:19:06.012Z,97271.00
2023-02-01T11:21:35.514Z,97252.06
2023-02-01T11:24:05.625Z,97320.13
2023-02-01T11:26:32.319Z,97285.63
2023-02-01T11:29:06.581Z,97258.97
2023-02-01T11:31:33.919Z,97270.25
2023-02-01T11:34:09.554Z,97284.66
2023-02-01T11:36:36.647Z,97288.69
2023-02-01T11:39:25.394Z,97258.44
2023-02-01T11:42:04.663Z,97259.75
2023-02-01T11:44:39.555Z,97246.16
2023-02-01T11:47:30.446Z,97262.31
2023-02-01T11:50:00.809Z,97247.06
2023-02-01T11:52:42.729Z,97263.97
2023-02-01T11:55:18.057Z,97245.72
2023-02-01T11:57:47.380Z,97256.91
2023-02-01T12:00:37.542Z,97248.13
2023-02-01T12:03:22.689Z,97254.94
2023-02-01T12:06:07.929Z,97243.34
2023-02-01T12:08:53.191Z,97244.72
2023-02-01T12:11:22.736Z,97196.59
2023-02-01T12:14:16.122Z,97248.47
2023-02-01T12:16:43.892Z,97230.72
2023-02-01T12:19:47.742Z,97217.47
2023-02-01T12:22:16.279Z,97211.31
2023-02-01T12:25:00.097Z,97235.06
2023-02-01T12:27:52.208Z,97223.66
2023-02-01T12:30:52.686Z,97243.66
2023-02-01T12:33:32.102Z,97208.09
2023-02-01T12:36:09.749Z,97213.44
2023-02-01T12:38:54.618Z,97217.06
2023-02-01T12:41:37.194Z,97205.78
2023-02-01T12:44:22.537Z,97199.06
2023-02-01T12:46:59.344Z,97170.38
2023-02-01T12:49:47.614Z,97205.44
2023-02-01T12:52:17.959Z,97203.84
2023-02-01T12:55:04.731Z,97192.13
2023-02-01T12:57:42.433Z,97183.91
2023-02-01T13:00:24.282Z,97191.00
2023-02-01T13:03:16.385Z,97197.88
2023-02-01T13:06:00.063Z,97180.25
2023-02-01T13:08:32.254Z,97190.94
2023-02-01T13:11:05.793Z,97171.75
2023-02-01T13:14:17.456Z,97188.41
2023-02-01T13:16:59.591Z,97183.38
2023-02-01T13:19:40.242Z,97180.97
2023-02-01T13:22:10.705Z,97179.53
2023-02-01T13:24:45.855Z,97167.00
2023-02-01T13:27:13.814Z,97176.75
2023-02-01T13:29:52.428Z,97179.75
2023-02-01T13:33:51.598Z,97190.09
2023-02-01T13:35:59.077Z,97206.84
2023-02-01T13:38:39.734Z,97179.91
2023-02-01T13:41:36.744Z,97177.81
2023-02-01T13:44:11.897Z,97173.88
2023-02-01T13:46:43.086Z,97176.69
2023-02-01T13:49:35.454Z,97156.88
2023-02-01T13:52:02.180Z,97156.16
2023-02-01T13:54:38.444Z,97154.84
2023-02-01T13:57:06.134Z,97180.63
2023-02-01T13:59:41.965Z,97170.94
2023-02-01T14:02:39.334Z,97196.31
2023-02-01T14:05:09.235Z,97181.59
2023-02-01T14:07:35.901Z,97181.94
2023-02-01T14:10:40.276Z,97181.56
2023-02-01T14:13:32.029Z,97174.84
2023-02-01T14:16:04.607Z,97189.72
2023-02-01T14:18:37.089Z,97196.91
2023-02-01T14:21:26.601Z,97162.72
2023-02-01T14:24:05.774Z,97161.34
2023-02-01T14:26:35.708Z,97169.34
2023-02-01T14:29:21.545Z,97177.91
2023-02-01T14:32:01.639Z,97189.28
2023-02-01T14:34:35.760Z,97187.75
2023-02-01T14:37:05.090Z,97182.94
2023-02-01T14:39:32.873Z,97185.41
2023-02-01T14:42:02.821Z,97180.81
2023-02-01T14:44:31.398Z,97196.00
2023-02-01T14:47:10.406Z,97188.16
2023-02-01T14:50:09.707Z,97195.69
2023-02-01T14:52:53.983Z,97200.38
2023-02-01T14:55:28.247Z,97195.03
2023-02-01T14:57:56.035Z,97170.78
2023-02-01T15:00:28.228Z,97187.53
2023-02-01T15:02:55.845Z,97183.47
2023-02-01T15:05:32.755Z,97182.44
2023-02-01T15:08:30.734Z,97195.84
2023-02-01T15:11:03.816Z,97193.09
2023-02-01T15:13:30.511Z,97191.72
2023-02-01T15:16:14.436Z,97176.84
2023-02-01T15:18:44.122Z,97209.66
2023-02-01T15:21:28.844Z,97196.56
2023-02-01T15:24:30.589Z,97169.91
2023-02-01T15:27:05.749Z,97170.41
2023-02-01T15:29:34.983Z,97176.78
2023-02-01T15:32:01.772Z,97205.63
2023-02-01T15:34:48.627Z,97208.84
2023-02-01T15:37:15.937Z,97178.72
2023-02-01T15:40:10.391Z,97177.44
2023-02-01T15:42:50.088Z,97166.44
2023-02-01T15:45:20.962Z,97083.81
2023-02-01T15:47:49.248Z,97186.13
2023-02-01T15:50:17.469Z,97169.81
2023-02-01T15:52:44.039Z,97186.88
2023-02-01T15:55:20.715Z,97145.28
2023-02-01T15:57:47.374Z,97168.00
2023-02-01T16:00:22.928Z,97192.34
2023-02-01T16:02:53.505Z,97182.03
2023-02-01T16:05:37.180Z,97169.91
2023-02-01T16:08:14.919Z,97198.41
2023-02-01T16:10:45.671Z,97183.88
2023-02-01T16:13:12.894Z,97169.44
2023-02-01T16:15:39.719Z,97175.00
2023-02-01T16:18:06.854Z,97171.78
2023-02-01T16:20:33.493Z,97174.19
2023-02-01T16:23:00.189Z,97193.25
2023-02-01T16:25:26.834Z,97165.97
2023-02-01T16:27:53.703Z,97165.97
2023-02-01T16:30:20.558Z,97199.53
2023-02-01T16:32:47.500Z,97186.00
2023-02-01T16:35:22.784Z,97155.38
2023-02-01T16:37:49.556Z,97193.56
2023-02-01T16:40:16.964Z,97205.69
2023-02-01T16:42:43.715Z,97198.25
2023-02-01T16:45:10.519Z,97204.88
2023-02-01T16:47:41.031Z,97207.66
2023-02-01T16:50:22.708Z,97170.81
2023-02-01T16:52:50.329Z,97171.63
2023-02-01T16:55:18.123Z,97194.53
2023-02-01T16:57:44.933Z,97176.63
2023-02-01T17:00:23.869Z,97213.59
2023-02-01T17:02:52.538Z,97169.59
2023-02-01T17:05:19.338Z,97202.13
2023-02-01T17:07:46.099Z,97208.41
2023-02-01T17:10:32.647Z,97213.13
2023-02-01T17:12:59.826Z,97220.31
2023-02-01T17:15:28.620Z,97227.16
2023-02-01T17:17:55.361Z,97191.22
2023-02-01T17:20:24.649Z,97200.34
2023-02-01T17:22:51.507Z,97199.53
2023-02-01T17:25:18.941Z,97225.72
2023-02-01T17:27:45.722Z,97215.72
2023-02-01T17:30:13.284Z,97200.69
2023-02-01T17:32:40.367Z,97185.25
2023-02-01T17:35:16.682Z,97210.06
2023-02-01T17:37:43.475Z,97209.97
2023-02-01T17:40:11.461Z,97220.25
2023-02-01T17:42:39.299Z,97210.72
2023-02-01T17:45:49.586Z,97189.06
2023-02-01T17:48:16.256Z,97194.22
2023-02-01T17:50:43.173Z,97207.72
2023-02-01T17:53:10.599Z,97205.13
2023-02-01T17:55:38.386Z,97206.66
2023-02-01T17:58:05.136Z,97218.13
2023-02-01T18:00:31.927Z,97191.16
2023-02-01T18:02:58.529Z,97158.34
2023-02-01T18:05:28.487Z,97175.00
2023-02-01T18:07:55.117Z,97186.47
2023-02-01T18:10:22.097Z,97174.13
2023-02-01T18:12:48.830Z,97164.00
2023-02-01T18:15:16.485Z,97142.69
2023-02-01T18:17:43.083Z,97172.75
2023-02-01T18:20:14.236Z,97174.94
2023-02-01T18:22:40.901Z,97160.63
2023-02-01T18:25:21.026Z,97168.06
2023-02-01T18:27:48.833Z,97145.94
2023-02-01T18:30:15.681Z,97113.13
2023-02-01T18:32:42.347Z,97152.66
2023-02-01T18:35:23.596Z,97168.88
2023-02-01T18:37:51.203Z,97156.91
2023-02-01T18:40:29.012Z,97145.13
2023-02-01T18:42:55.789Z,97121.38
2023-02-01T18:45:32.381Z,97133.72
2023-02-01T18:47:59.152Z,97157.56
2023-02-01T18:50:26.074Z,97139.53
2023-02-01T18:52:53.915Z,97134.78
2023-02-01T18:55:20.644Z,97151.97
2023-02-01T18:57:47.268Z,97138.81
2023-02-01T19:00:14.453Z,97147.22
2023-02-01T19:02:41.389Z,97154.56
2023-02-01T19:05:08.804Z,97139.00
2023-02-01T19:07:36.112Z,97150.69
2023-02-01T19:10:03.964Z,97126.38
2023-02-01T19:12:30.703Z,97119.44
2023-02-01T19:14:57.265Z,97148.50
2023-02-01T19:17:23.901Z,97143.41
2023-02-01T19:19:50.517Z,97158.34
2023-02-01T19:22:17.839Z,97121.53
2023-02-01T19:24:44.543Z,97136.38
2023-02-01T19:27:11.324Z,97147.63
2023-02-01T19:29:38.176Z,97130.47
2023-02-01T19:32:05.468Z,97155.69
2023-02-01T19:34:32.064Z,97143.31
2023-02-01T19:36:58.801Z,97159.97
2023-02-01T19:39:25.396Z,97131.69
2023-02-01T19:41:54.820Z,97140.44
2023-02-01T19:44:21.691Z,97144.44
2023-02-01T19:46:54.609Z,97148.34
2023-02-01T19:49:21.481Z,97143.00
2023-02-01T19:51:48.158Z,97165.78
2023-02-01T19:54:15.274Z,97145.78
2023-02-01T19:56:42.096Z,97176.13
2023-02-01T19:59:11.157Z,97132.19
2023-02-01T20:01:37.032Z,97139.38
2023-02-01T20:04:06.988Z,97113.63
2023-02-01T20:06:41.828Z,97153.84
2023-02-01T20:09:11.474Z,97157.56
2023-02-01T20:11:38.301Z,97132.50
2023-02-01T20:14:07.922Z,97144.78
2023-02-01T20:16:34.601Z,97125.31
2023-02-01T20:19:01.359Z,97133.00
2023-02-01T20:21:27.919Z,97128.56
2023-02-01T20:23:54.590Z,97117.25
2023-02-01T20:26:22.530Z,97146.94
2023-02-01T20:28:49.484Z,97139.63
2023-02-01T20:31:16.153Z,97108.94
2023-02-01T20:33:51.932Z,97126.94
2023-02-01T20:36:34.308Z,97145.50
2023-02-01T20:39:01.236Z,97121.47
2023-02-01T20:41:27.959Z,97146.31
2023-02-01T20:43:54.807Z,97156.28
2023-02-01T20:46:22.049Z,97127.75
2023-02-01T20:48:50.475Z,97163.44
2023-02-01T20:51:19.091Z,97170.31
2023-02-01T20:53:45.738Z,97135.91
2023-02-01T20:56:12.479Z,97146.78
2023-02-01T20:58:39.255Z,97159.00
2023-02-01T21:01:07.044Z,97171.53
2023-02-01T21:03:33.969Z,97123.75
2023-02-01T21:06:00.747Z,97153.09
2023-02-01T21:08:27.805Z,97144.13
2023-02-01T21:10:59.784Z,97143.00
2023-02-01T21:13:27.143Z,97136.53
2023-02-01T21:15:53.857Z,97150.94
2023-02-01T21:18:20.525Z,97119.16
2023-02-01T21:20:47.250Z,97152.22
2023-02-01T21:23:14.485Z,97146.94
2023-02-01T21:25:41.564Z,97130.31
2023-02-01T21:28:08.171Z,97168.22
2023-02-01T21:30:35.085Z,97163.63
2023-02-01T21:33:01.790Z,97164.81
2023-02-01T21:35:28.546Z,97138.25
2023-02-01T21:37:55.191Z,97154.25
2023-02-01T21:40:21.694Z,97148.38
2023-02-01T21:42:48.271Z,97143.41
2023-02-01T21:45:15.800Z,97145.09
2023-02-01T21:47:42.669Z,97157.16
2023-02-01T21:50:14.023Z,97130.56
2023-02-01T21:52:40.745Z,97151.03
2023-02-01T21:55:08.006Z,97118.88
2023-02-01T21:57:34.686Z,97118.41
2023-02-01T22:00:01.326Z,97129.78
2023-02-01T22:02:28.167Z,97162.25
2023-02-01T22:04:54.980Z,97145.94
2023-02-01T22:07:21.593Z,97115.09
2023-02-01T22:09:48.162Z,97148.03
2023-02-01T22:12:15.026Z,97122.34
2023-02-01T22:14:41.746Z,97128.91
2023-02-01T22:17:08.326Z,97127.19
2023-02-01T22:19:34.952Z,97097.09
2023-02-01T22:22:01.665Z,97147.06
2023-02-01T22:24:28.168Z,97158.38
2023-02-01T22:26:54.808Z,97117.81
2023-02-01T22:29:21.504Z,97132.06
2023-02-01T22:31:48.290Z,97106.13
2023-02-01T22:34:14.995Z,97134.41
2023-02-01T22:36:41.651Z,97126.53
2023-02-01T22:39:08.573Z,97118.63
2023-02-01T22:41:35.120Z,97100.22
2023-02-01T22:44:01.780Z,97100.53
2023-02-01T22:46:28.897Z,97110.16
2023-02-01T22:48:55.514Z,97118.38
2023-02-01T22:51:32.207Z,97118.00
2023-02-01T22:53:58.925Z,97143.50
2023-02-01T22:56:27.153Z,97127.50
2023-02-01T22:58:55.367Z,97124.28
2023-02-01T23:01:22.072Z,97135.28
2023-02-01T23:03:48.796Z,97142.38
2023-02-01T23:06:15.700Z,97126.53
2023-02-01T23:08:42.411Z,97136.06
2023-02-01T23:11:09.768Z,97138.19
2023-02-01T23:13:36.859Z,97147.84
2023-02-01T23:16:08.607Z,97120.97
2023-02-01T23:18:35.337Z,97136.22
2023-02-01T23:21:06.325Z,97115.72
2023-02-01T23:23:33.078Z,97115.56
2023-02-01T23:25:59.688Z,97146.16
2023-02-01T23:28:26.972Z,97118.78
2023-02-01T23:30:53.711Z,97137.13
2023-02-01T23:33:27.104Z,97128.97
2023-02-01T23:35:57.564Z,97123.31
2023-02-01T23:38:24.696Z,97108.34
2023-02-01T23:40:52.288Z,97085.09
2023-02-01T23:43:18.997Z,97142.03
2023-02-01T23:45:45.590Z,97121.94
2023-02-01T23:48:12.201Z,97135.75
2023-02-01T23:50:38.739Z,97107.72
2023-02-01T23:53:05.383Z,97096.69
2023-02-01T23:55:32.019Z,97124.13
2023-02-01T23:57:58.601Z,97115.22
